Terminal Aerodrome Forecast
Issued by NWS Buffalo, NY

Home | Current Version | Previous Version | Text Only | Print | Product List | Glossary On
Versions: 1 2 3 4 5 6 7 8 9 10 11 12 13 14 15 16 17 18 19 20 21 22 23 24 25 26
000
FTUS41 KBUF 302100 AAA
TAFROC
TAF AMD
KROC 302115Z 3021/3118 23008KT P6SM -SHRA SCT045 BKN070
      TEMPO 3023/3024 6SM -TSRA BKN040CB
     FM310100 24007KT P6SM SCT040 BKN100
     FM310400 23004KT P6SM FEW025 SCT035
     FM311000 23005KT P6SM VCSH BKN050
     FM311500 23006KT P6SM BKN200=

USA.gov is the U.S. government's official web portal to all federal, state and local government web resources and services.